Time;durP1;ratioP1;P1;durP2;ratioP2;P2;SDS_P1;SDS_P2;PMS_P1;PMS_P2;Temp;Humidity;BMP_temperature;BMP_pressure;BME280_temperature;BME280_humidity;BME280_pressure;Samples;Min_cycle;Max_cycle;Signal;HPM_P1;HPM_P2
2023/03/24 00:02:22;;;;;;;5.57;2.17;;;13.00;99.90;;;;;;7291169;19;20220;-84
2023/03/24 00:04:51;;;;;;;6.23;1.97;;;13.00;99.90;;;;;;7289881;19;20192;-84
2023/03/24 00:07:18;;;;;;;4.33;1.90;;;13.00;99.90;;;;;;7289466;19;20650;-82
2023/03/24 00:09:45;;;;;;;5.37;1.93;;;12.90;99.90;;;;;;7297674;19;20183;-82
2023/03/24 00:12:12;;;;;;;4.97;1.90;;;12.90;99.90;;;;;;7311734;19;20194;-82
2023/03/24 00:14:39;;;;;;;4.50;2.10;;;13.00;99.90;;;;;;7289705;19;20185;-83
2023/03/24 00:17:08;;;;;;;5.80;2.00;;;13.00;99.90;;;;;;7289662;19;20557;-83
2023/03/24 00:19:37;;;;;;;4.53;1.93;;;13.00;99.90;;;;;;7289819;19;20207;-82
2023/03/24 00:22:05;;;;;;;4.60;1.73;;;13.10;99.90;;;;;;7297464;19;20577;-83
2023/03/24 00:24:31;;;;;;;4.27;1.77;;;13.10;99.90;;;;;;7289500;19;20184;-83
2023/03/24 00:26:57;;;;;;;6.37;1.90;;;13.10;99.90;;;;;;7288907;19;20194;-84
2023/03/24 00:29:24;;;;;;;6.87;2.20;;;13.10;99.90;;;;;;7289931;19;20607;-83
2023/03/24 00:31:51;;;;;;;5.03;2.00;;;13.20;99.90;;;;;;7289428;19;20255;-83
2023/03/24 00:34:20;;;;;;;4.63;1.80;;;13.20;99.90;;;;;;7289261;19;20249;-83
2023/03/24 00:36:50;;;;;;;6.03;1.87;;;13.20;99.90;;;;;;7288777;19;20193;-82
2023/03/24 00:39:18;;;;;;;5.47;1.80;;;13.20;99.90;;;;;;7288043;19;20615;-82
2023/03/24 00:41:46;;;;;;;4.30;1.90;;;13.20;99.90;;;;;;7294819;19;20203;-82
2023/03/24 00:44:17;;;;;;;4.23;1.80;;;13.20;99.90;;;;;;7311871;19;20191;-83
2023/03/24 00:46:54;;;;;;;4.40;2.00;;;13.20;99.90;;;;;;7282035;19;20204;-81
2023/03/24 00:49:43;;;;;;;5.80;1.70;;;13.20;99.90;;;;;;7289726;19;20188;-82
2023/03/24 00:52:23;;;;;;;4.83;2.30;;;13.30;99.90;;;;;;7289921;19;20215;-82
2023/03/24 00:54:54;;;;;;;4.97;2.00;;;13.30;99.90;;;;;;7185766;19;2004735;-82
2023/03/24 00:57:24;;;;;;;6.40;2.00;;;13.30;99.90;;;;;;7290337;19;20293;-82
2023/03/24 00:59:53;;;;;;;4.23;1.70;;;13.30;99.90;;;;;;7288340;19;20699;-82
2023/03/24 01:02:23;;;;;;;7.33;2.50;;;13.30;99.90;;;;;;7287951;19;20200;-82
2023/03/24 01:04:53;;;;;;;4.80;1.90;;;13.40;99.90;;;;;;7288225;19;20627;-83
2023/03/24 01:07:24;;;;;;;5.87;2.07;;;13.40;99.90;;;;;;7287379;19;20211;-82
2023/03/24 01:09:56;;;;;;;4.90;1.70;;;13.50;99.90;;;;;;7288148;19;20194;-82
2023/03/24 01:12:24;;;;;;;3.90;1.87;;;13.50;99.90;;;;;;7287013;19;20284;-82
2023/03/24 01:14:51;;;;;;;5.23;1.90;;;13.60;99.90;;;;;;7286824;19;20238;-83
2023/03/24 01:17:18;;;;;;;5.40;2.40;;;13.70;99.90;;;;;;7287873;19;20242;-83
2023/03/24 01:19:44;;;;;;;5.57;1.90;;;13.80;99.90;;;;;;7297504;19;20194;-82
2023/03/24 01:22:11;;;;;;;5.30;1.90;;;13.80;99.90;;;;;;7310132;19;20192;-83
2023/03/24 01:24:37;;;;;;;5.97;2.00;;;13.90;99.90;;;;;;7288567;19;20223;-83
2023/03/24 01:27:03;;;;;;;4.80;2.00;;;14.00;99.90;;;;;;7287871;19;20204;-84
2023/03/24 01:29:29;;;;;;;5.73;2.00;;;14.00;99.90;;;;;;7289220;19;20192;-83
2023/03/24 01:31:55;;;;;;;5.70;2.00;;;14.00;99.90;;;;;;7288436;19;20213;-82
2023/03/24 01:34:21;;;;;;;6.03;2.00;;;14.00;99.90;;;;;;7287746;19;20197;-82
2023/03/24 01:36:47;;;;;;;5.07;2.20;;;14.20;99.90;;;;;;7288572;19;20191;-82
2023/03/24 01:39:12;;;;;;;5.50;2.37;;;14.20;99.90;;;;;;7309235;19;20184;-80
2023/03/24 01:41:38;;;;;;;5.47;2.30;;;14.20;99.90;;;;;;7297120;19;20199;-83
2023/03/24 01:44:31;;;;;;;6.87;2.50;;;14.20;99.90;;;;;;7287491;19;20204;-82
2023/03/24 01:46:57;;;;;;;7.33;2.83;;;14.30;99.90;;;;;;7185666;19;2004760;-82
2023/03/24 01:49:27;;;;;;;9.30;3.07;;;14.30;99.90;;;;;;7288697;19;20229;-82
2023/03/24 01:51:58;;;;;;;9.33;3.40;;;14.30;99.90;;;;;;7292784;19;20204;-81
2023/03/24 01:54:36;;;;;;;10.17;3.67;;;14.20;99.90;;;;;;7285472;19;20226;-81
2023/03/24 01:57:07;;;;;;;7.07;3.00;;;14.20;99.90;;;;;;7285273;19;20211;-84
2023/03/24 01:59:42;;;;;;;6.50;2.57;;;14.20;99.90;;;;;;7283602;19;20191;-82
2023/03/24 02:02:21;;;;;;;5.33;2.43;;;14.20;99.90;;;;;;7181344;19;2004507;-81
2023/03/24 02:05:02;;;;;;;4.23;1.77;;;14.10;99.90;;;;;;7285030;19;20197;-82
2023/03/24 02:08:03;;;;;;;5.13;2.00;;;13.90;99.90;;;;;;7286463;19;20213;-83
2023/03/24 02:10:32;;;;;;;4.40;1.93;;;13.80;99.90;;;;;;7183663;19;2004569;-81
2023/03/24 02:12:58;;;;;;;4.37;1.97;;;13.90;99.90;;;;;;7285988;19;20196;-82
2023/03/24 02:15:28;;;;;;;4.30;1.93;;;14.00;99.90;;;;;;7287322;19;20210;-81
2023/03/24 02:18:17;;;;;;;4.37;1.53;;;14.00;99.90;;;;;;7286491;19;20196;-82
2023/03/24 02:21:34;;;;;;;3.43;1.43;;;13.90;99.90;;;;;;7282921;19;20190;-80
2023/03/24 02:24:24;;;;;;;4.63;1.27;;;13.80;99.90;;;;;;7185116;19;2006095;-82
2023/03/24 02:27:00;;;;;;;2.73;0.77;;;13.60;99.90;;;;;;7182909;19;2004500;-82
2023/03/24 02:29:54;;;;;;;3.00;0.70;;;13.50;99.90;;;;;;7286007;19;20236;-81
2023/03/24 02:32:38;;;;;;;2.50;1.00;;;13.20;99.90;;;;;;7183498;19;2004608;-81
2023/03/24 02:35:15;;;;;;;4.27;0.77;;;13.10;99.90;;;;;;7287208;19;20731;-82
2023/03/24 02:38:18;;;;;;;3.27;0.67;;;13.00;99.90;;;;;;7287262;19;20241;-82
2023/03/24 02:41:02;;;;;;;3.03;0.83;;;13.00;99.90;;;;;;7170273;19;2004433;-81
2023/03/24 02:43:52;;;;;;;3.07;0.90;;;13.00;99.90;;;;;;7285969;19;20258;-82
2023/03/24 02:46:23;;;;;;;4.63;0.87;;;12.90;99.90;;;;;;7181873;19;2004571;-82
2023/03/24 02:48:51;;;;;;;3.17;0.80;;;12.90;99.90;;;;;;7283921;19;20214;-82
2023/03/24 02:51:35;;;;;;;2.80;0.63;;;12.80;99.90;;;;;;7283958;19;20192;-81
2023/03/24 02:54:15;;;;;;;3.43;0.87;;;12.60;99.90;;;;;;7284679;19;20460;-82
2023/03/24 02:57:07;;;;;;;5.33;0.87;;;12.60;99.90;;;;;;7285848;19;20569;-82
2023/03/24 03:00:00;;;;;;;3.00;0.80;;;12.60;99.90;;;;;;7080919;19;2004550;-82
2023/03/24 03:03:07;;;;;;;5.57;1.07;;;12.60;99.90;;;;;;7263030;19;20230;-83
2023/03/24 03:05:40;;;;;;;4.67;0.80;;;12.60;99.90;;;;;;7283547;19;20197;-83
2023/03/24 03:08:11;;;;;;;8.50;1.20;;;12.70;99.90;;;;;;7284669;19;20560;-83
2023/03/24 03:10:40;;;;;;;8.03;1.67;;;12.60;99.90;;;;;;7285479;19;20283;-83
2023/03/24 03:13:29;;;;;;;7.67;1.90;;;12.50;99.90;;;;;;7284328;19;20192;-83
2023/03/24 03:16:02;;;;;;;5.10;1.67;;;12.50;99.90;;;;;;7181060;19;2006092;-82
2023/03/24 03:18:38;;;;;;;9.63;2.10;;;12.50;99.90;;;;;;7283026;19;20189;-82
2023/03/24 03:21:09;;;;;;;8.90;1.90;;;12.20;99.90;;;;;;7285629;19;20214;-82
2023/03/24 03:23:40;;;;;;;8.60;2.10;;;12.10;99.90;;;;;;7285479;19;20197;-82
2023/03/24 03:26:11;;;;;;;8.53;1.27;;;12.00;99.90;;;;;;7292729;19;20199;-81
2023/03/24 03:28:42;;;;;;;10.67;1.93;;;12.00;99.90;;;;;;7290786;19;20209;-81
2023/03/24 03:31:14;;;;;;;7.90;1.43;;;12.10;99.90;;;;;;7285937;19;20245;-82
2023/03/24 03:33:48;;;;;;;10.50;1.60;;;12.10;99.90;;;;;;7285866;19;20600;-82
2023/03/24 03:36:27;;;;;;;10.77;1.47;;;12.10;99.90;;;;;;7271433;19;20183;-81
2023/03/24 03:39:09;;;;;;;7.43;1.80;;;12.10;99.90;;;;;;7283920;19;20190;-83
2023/03/24 03:41:37;;;;;;;9.67;1.60;;;12.10;99.90;;;;;;7284098;19;20194;-83
2023/03/24 03:44:02;;;;;;;11.53;2.47;;;12.20;99.90;;;;;;7282984;19;21881;-83
2023/03/24 03:46:28;;;;;;;10.47;2.50;;;12.20;99.90;;;;;;7283295;19;20249;-83
2023/03/24 03:48:56;;;;;;;12.30;3.07;;;12.20;99.90;;;;;;7283681;19;20532;-83
2023/03/24 03:51:22;;;;;;;12.10;3.07;;;12.30;99.90;;;;;;7282591;19;20190;-83
2023/03/24 03:53:57;;;;;;;11.57;3.30;;;12.30;99.90;;;;;;7283257;19;20193;-82
2023/03/24 03:56:31;;;;;;;12.90;3.80;;;12.40;99.90;;;;;;7282592;19;20194;-83
2023/03/24 03:59:29;;;;;;;14.93;3.93;;;12.50;99.90;;;;;;7179791;19;2004652;-83
2023/03/24 04:01:57;;;;;;;16.70;4.40;;;12.50;99.90;;;;;;7283467;19;20229;-82
2023/03/24 04:04:57;;;;;;;16.97;4.50;;;12.50;99.90;;;;;;7283470;19;20517;-83
2023/03/24 04:08:04;;;;;;;12.10;3.83;;;12.50;99.90;;;;;;7180967;19;2004584;-83
2023/03/24 04:10:55;;;;;;;12.70;3.77;;;12.40;99.90;;;;;;7078166;19;2005026;-82
2023/03/24 04:13:57;;;;;;;11.80;3.90;;;12.40;99.90;;;;;;7282346;19;20306;-82
2023/03/24 04:17:11;;;;;;;12.47;3.53;;;12.40;99.90;;;;;;7183735;19;2004508;-82
2023/03/24 04:19:55;;;;;;;13.03;3.13;;;12.40;99.90;;;;;;7179948;19;2006135;-82
2023/03/24 04:22:54;;;;;;;15.37;3.50;;;12.30;99.90;;;;;;7180729;19;2004650;-81
2023/03/24 04:25:55;;;;;;;15.73;3.80;;;12.20;99.90;;;;;;7179440;19;2004869;-82
2023/03/24 04:28:30;;;;;;;11.67;3.33;;;12.20;99.90;;;;;;7179737;19;2004421;-81
2023/03/24 04:31:36;;;;;;;13.53;3.60;;;12.10;99.90;;;;;;7287525;19;20199;-83
2023/03/24 04:34:20;;;;;;;11.13;3.27;;;12.00;99.90;;;;;;7184892;19;2004796;-82
2023/03/24 04:36:49;;;;;;;17.43;3.67;;;12.00;99.90;;;;;;7267280;19;20660;-81
2023/03/24 04:39:37;;;;;;;12.87;3.50;;;12.10;99.90;;;;;;7289392;19;20221;-82
2023/03/24 04:42:26;;;;;;;15.60;3.13;;;12.10;99.90;;;;;;7289886;19;20187;-82
2023/03/24 04:44:52;;;;;;;13.80;3.00;;;12.10;99.90;;;;;;7189128;19;2004640;-82
2023/03/24 04:47:57;;;;;;;14.67;2.80;;;12.30;99.90;;;;;;7188914;19;2004568;-82
2023/03/24 04:50:59;;;;;;;14.87;2.33;;;12.40;99.90;;;;;;7191510;19;2004543;-81
2023/03/24 04:53:26;;;;;;;12.50;2.70;;;12.20;99.90;;;;;;7292453;19;20198;-81
2023/03/24 04:56:00;;;;;;;11.20;2.13;;;12.20;99.90;;;;;;7295210;19;20199;-81
2023/03/24 04:58:46;;;;;;;10.10;1.80;;;12.10;99.90;;;;;;7272395;19;20691;-81
2023/03/24 05:01:12;;;;;;;13.57;1.93;;;12.10;99.90;;;;;;7309462;19;20193;-82
2023/03/24 05:03:44;;;;;;;16.87;2.17;;;11.90;99.90;;;;;;7289025;19;20181;-82
2023/03/24 05:06:11;;;;;;;13.97;1.70;;;11.80;99.90;;;;;;7288105;19;20190;-82
2023/03/24 05:08:38;;;;;;;11.57;2.13;;;11.70;99.90;;;;;;7289250;19;20181;-82
2023/03/24 05:11:05;;;;;;;13.73;2.47;;;11.60;99.90;;;;;;7288050;19;20189;-82
2023/03/24 05:13:32;;;;;;;13.23;1.97;;;11.50;99.90;;;;;;7287757;19;20875;-82
2023/03/24 05:16:01;;;;;;;12.00;1.90;;;11.60;99.90;;;;;;7288363;19;20733;-82
2023/03/24 05:18:32;;;;;;;14.23;2.20;;;11.50;99.90;;;;;;7287581;19;20189;-82
2023/03/24 05:20:59;;;;;;;11.10;1.97;;;11.60;99.90;;;;;;7289220;19;20190;-83
2023/03/24 05:23:25;;;;;;;20.30;2.67;;;11.50;99.90;;;;;;7288252;19;20185;-83
2023/03/24 05:25:52;;;;;;;15.17;2.27;;;11.50;99.90;;;;;;7286970;19;20195;-82
2023/03/24 05:28:21;;;;;;;13.07;2.37;;;11.40;99.90;;;;;;7288672;19;20313;-82
2023/03/24 05:30:47;;;;;;;15.70;2.13;;;11.40;99.90;;;;;;7288157;19;20540;-82
2023/03/24 05:33:36;;;;;;;15.93;2.30;;;11.50;99.90;;;;;;7287048;19;20193;-82
2023/03/24 05:36:03;;;;;;;14.50;2.10;;;11.40;99.90;;;;;;7285645;19;20199;-82
2023/03/24 05:38:29;;;;;;;14.53;1.60;;;11.40;99.90;;;;;;7286307;19;20181;-81
2023/03/24 05:40:59;;;;;;;14.10;2.10;;;11.40;99.90;;;;;;7284675;19;20196;-82
2023/03/24 05:43:30;;;;;;;15.17;2.10;;;11.30;99.90;;;;;;7287968;19;20204;-82
2023/03/24 05:46:06;;;;;;;17.40;2.33;;;11.30;99.90;;;;;;7286721;19;20204;-83
2023/03/24 05:48:33;;;;;;;14.20;2.23;;;11.20;99.90;;;;;;7287531;19;20217;-82
2023/03/24 05:51:18;;;;;;;16.07;2.57;;;11.20;99.90;;;;;;7287072;19;20187;-83
2023/03/24 05:53:47;;;;;;;21.10;2.20;;;11.10;99.90;;;;;;7286735;19;20200;-81
2023/03/24 05:56:16;;;;;;;20.63;2.20;;;11.10;99.90;;;;;;7288295;19;20667;-83
2023/03/24 05:59:01;;;;;;;12.10;2.00;;;11.10;99.90;;;;;;7287269;19;20216;-82
2023/03/24 06:01:52;;;;;;;13.80;1.93;;;11.30;99.90;;;;;;7183169;19;2004846;-81
2023/03/24 06:04:56;;;;;;;15.83;2.87;;;11.40;99.90;;;;;;7183359;19;2004618;-83
2023/03/24 06:07:25;;;;;;;17.03;1.97;;;11.60;99.90;;;;;;7286165;19;20196;-82
2023/03/24 06:09:51;;;;;;;14.60;2.60;;;11.60;99.90;;;;;;7286364;19;20740;-81
2023/03/24 06:12:20;;;;;;;14.13;2.07;;;11.70;99.90;;;;;;7286865;19;20181;-80
2023/03/24 06:14:59;;;;;;;13.80;2.03;;;11.70;99.90;;;;;;7286543;19;20192;-81
2023/03/24 06:17:29;;;;;;;10.53;1.90;;;11.80;99.90;;;;;;7286709;19;20193;-82
2023/03/24 06:20:01;;;;;;;13.20;1.80;;;11.90;99.90;;;;;;7285784;19;20185;-81
2023/03/24 06:22:43;;;;;;;13.53;2.23;;;11.90;99.90;;;;;;7288137;19;20194;-81
2023/03/24 06:25:12;;;;;;;10.63;2.07;;;12.00;99.90;;;;;;7287473;19;20186;-81
2023/03/24 06:27:45;;;;;;;13.37;2.30;;;12.10;99.90;;;;;;7286342;19;20268;-81
2023/03/24 06:30:14;;;;;;;9.47;1.80;;;12.10;99.90;;;;;;7287225;19;20186;-81
2023/03/24 06:32:40;;;;;;;14.73;1.70;;;12.10;99.90;;;;;;7286004;19;20252;-81
2023/03/24 06:35:06;;;;;;;11.67;2.03;;;12.10;99.90;;;;;;7286201;19;20678;-81
2023/03/24 06:37:42;;;;;;;12.27;2.30;;;12.10;99.90;;;;;;7286872;19;20220;-81
2023/03/24 06:40:16;;;;;;;12.93;2.30;;;12.00;99.90;;;;;;7287381;19;20193;-81
2023/03/24 06:42:48;;;;;;;12.83;2.00;;;12.20;99.90;;;;;;7263142;19;20178;-81
2023/03/24 06:45:15;;;;;;;12.43;1.83;;;12.60;99.90;;;;;;7293382;19;20186;-81
2023/03/24 06:47:41;;;;;;;10.93;1.83;;;12.90;99.90;;;;;;7310500;19;20187;-81
2023/03/24 06:50:07;;;;;;;11.87;2.33;;;13.00;99.90;;;;;;7285396;19;20179;-82
2023/03/24 06:52:34;;;;;;;16.97;2.47;;;13.00;99.90;;;;;;7282868;19;20600;-80
2023/03/24 06:55:00;;;;;;;14.17;2.60;;;12.80;99.90;;;;;;7285446;19;20195;-80
2023/03/24 06:57:28;;;;;;;13.30;2.53;;;12.80;99.90;;;;;;7283733;19;20217;-80
2023/03/24 07:00:12;;;;;;;14.73;2.20;;;12.60;99.90;;;;;;7286746;19;20199;-80
2023/03/24 07:02:52;;;;;;;11.27;2.20;;;12.70;99.90;;;;;;7182688;19;2004422;-79
2023/03/24 07:05:19;;;;;;;13.30;2.17;;;12.90;99.90;;;;;;7283066;19;20185;-79
2023/03/24 07:07:45;;;;;;;15.70;2.30;;;13.20;99.90;;;;;;7289662;19;20199;-79
2023/03/24 07:10:35;;;;;;;10.17;1.97;;;13.30;99.90;;;;;;7284919;19;20273;-80
2023/03/24 07:13:02;;;;;;;17.23;2.30;;;13.40;99.90;;;;;;7283226;19;20543;-80
2023/03/24 07:15:29;;;;;;;15.10;2.10;;;13.30;99.90;;;;;;7283765;19;20191;-79
2023/03/24 07:17:55;;;;;;;13.87;2.40;;;13.60;99.90;;;;;;7282482;19;20699;-79
2023/03/24 07:20:37;;;;;;;11.43;2.03;;;13.80;99.90;;;;;;7284298;19;20734;-81
2023/03/24 07:23:14;;;;;;;15.00;2.20;;;13.80;99.90;;;;;;7277435;19;20665;-79
2023/03/24 07:25:53;;;;;;;10.87;2.10;;;13.80;99.90;;;;;;7282881;19;20194;-79
2023/03/24 07:28:33;;;;;;;14.47;2.17;;;13.60;99.90;;;;;;7284848;19;20189;-79
2023/03/24 07:31:02;;;;;;;17.60;3.50;;;13.70;99.90;;;;;;7283720;19;20677;-79
2023/03/24 07:33:28;;;;;;;13.10;2.30;;;13.80;99.90;;;;;;7283733;19;20652;-81
2023/03/24 07:35:56;;;;;;;11.47;2.30;;;13.80;99.90;;;;;;7282600;19;20200;-81
2023/03/24 07:38:22;;;;;;;12.80;2.20;;;13.80;99.90;;;;;;7282343;19;20683;-79
2023/03/24 07:40:51;;;;;;;12.87;2.30;;;13.80;99.90;;;;;;7281944;19;20192;-79
2023/03/24 07:43:17;;;;;;;11.73;2.20;;;13.80;99.90;;;;;;7283469;19;20208;-79
2023/03/24 07:46:09;;;;;;;12.80;2.30;;;13.70;99.90;;;;;;7283295;19;20771;-80
2023/03/24 07:48:34;;;;;;;14.90;2.43;;;13.60;99.90;;;;;;7285798;19;20191;-79
2023/03/24 07:51:00;;;;;;;15.27;2.17;;;13.60;99.90;;;;;;7283872;19;20195;-80
2023/03/24 07:53:46;;;;;;;10.17;1.93;;;13.70;99.90;;;;;;7270048;19;20207;-78
2023/03/24 07:56:15;;;;;;;14.23;2.20;;;13.30;99.90;;;;;;7292592;19;20661;-79
2023/03/24 07:58:49;;;;;;;12.33;2.33;;;13.40;99.90;;;;;;7282871;19;20638;-79
2023/03/24 08:01:23;;;;;;;13.67;2.00;;;13.80;99.90;;;;;;7282989;19;20278;-79
2023/03/24 08:03:54;;;;;;;10.43;2.00;;;14.00;99.90;;;;;;7283824;19;20211;-78
2023/03/24 08:06:42;;;;;;;12.73;2.23;;;14.80;99.90;;;;;;7290414;19;20213;-80
2023/03/24 08:09:08;;;;;;;9.93;1.60;;;15.80;99.90;;;;;;7290587;19;20196;-79
2023/03/24 08:11:34;;;;;;;11.43;2.30;;;17.20;99.90;;;;;;7290998;19;20196;-79
2023/03/24 08:14:00;;;;;;;11.03;2.10;;;17.90;99.90;;;;;;7291377;19;20197;-79
2023/03/24 08:16:26;;;;;;;10.97;2.10;;;19.50;99.90;;;;;;7290652;19;20192;-79
2023/03/24 08:18:51;;;;;;;10.70;2.00;;;20.70;99.90;;;;;;7289017;19;20204;-79
2023/03/24 08:21:17;;;;;;;9.57;1.67;;;21.50;99.90;;;;;;7289550;19;20275;-79
2023/03/24 08:23:43;;;;;;;14.73;1.93;;;20.90;99.90;;;;;;7313360;19;20184;-79
2023/03/24 08:26:09;;;;;;;12.17;2.03;;;19.60;99.90;;;;;;7289365;19;20181;-79
2023/03/24 08:28:36;;;;;;;10.63;1.90;;;19.00;99.90;;;;;;7290967;19;20692;-79
2023/03/24 08:31:03;;;;;;;13.13;2.10;;;18.30;99.90;;;;;;7289076;19;20192;-79
2023/03/24 08:33:28;;;;;;;10.57;1.90;;;17.90;99.90;;;;;;7291451;19;20196;-79
2023/03/24 08:35:56;;;;;;;12.53;2.07;;;17.60;99.90;;;;;;7291639;19;20683;-79
2023/03/24 08:38:29;;;;;;;15.23;2.40;;;18.60;99.90;;;;;;7289377;19;20189;-79
2023/03/24 08:41:00;;;;;;;11.57;1.93;;;19.70;99.90;;;;;;7290200;19;20545;-79
2023/03/24 08:43:28;;;;;;;14.27;2.10;;;19.60;99.90;;;;;;7290268;19;20189;-81
2023/03/24 08:45:56;;;;;;;11.50;2.17;;;20.40;99.90;;;;;;7287940;19;20706;-80
2023/03/24 08:48:22;;;;;;;10.67;2.13;;;20.20;99.90;;;;;;7289379;19;21074;-79
2023/03/24 08:50:48;;;;;;;13.13;2.37;;;19.90;99.90;;;;;;7290356;19;20192;-79
2023/03/24 08:53:14;;;;;;;12.17;2.17;;;19.50;99.90;;;;;;7310138;19;20195;-79
2023/03/24 08:55:42;;;;;;;14.63;2.03;;;19.80;99.90;;;;;;7290168;19;20190;-80
2023/03/24 08:58:17;;;;;;;10.17;2.20;;;20.10;99.90;;;;;;7289627;19;20198;-81
2023/03/24 09:00:44;;;;;;;11.80;1.90;;;19.20;99.90;;;;;;7288674;19;20200;-77
2023/03/24 09:03:13;;;;;;;15.57;2.57;;;18.70;99.90;;;;;;7289950;19;20181;-79
2023/03/24 09:05:40;;;;;;;14.10;2.27;;;18.10;99.90;;;;;;7289751;19;20197;-78
2023/03/24 09:08:06;;;;;;;13.17;2.10;;;17.10;99.90;;;;;;7294492;19;20232;-79
2023/03/24 09:10:33;;;;;;;15.83;2.23;;;16.80;99.90;;;;;;7289470;19;20188;-81
2023/03/24 09:12:59;;;;;;;12.73;2.37;;;16.50;99.90;;;;;;7289015;19;20190;-79
2023/03/24 09:15:24;;;;;;;14.23;2.20;;;16.30;99.90;;;;;;7287150;19;20191;-79
2023/03/24 09:17:51;;;;;;;14.23;2.57;;;16.50;99.90;;;;;;7288301;19;20188;-79
2023/03/24 09:20:17;;;;;;;11.07;1.90;;;16.70;99.90;;;;;;7286591;19;20595;-78
2023/03/24 09:22:45;;;;;;;17.37;2.53;;;16.80;99.90;;;;;;7312278;19;20664;-79
2023/03/24 09:25:18;;;;;;;12.57;2.43;;;16.90;99.90;;;;;;7287073;19;20217;-79
2023/03/24 09:27:44;;;;;;;11.43;1.97;;;16.50;99.90;;;;;;7288332;19;20204;-78
2023/03/24 09:30:12;;;;;;;16.50;2.50;;;16.40;99.90;;;;;;7289291;19;20189;-81
2023/03/24 09:32:38;;;;;;;12.67;2.40;;;16.30;99.90;;;;;;7287980;19;20183;-81
2023/03/24 09:35:06;;;;;;;14.87;2.33;;;16.50;99.90;;;;;;7288039;19;20202;-81
2023/03/24 09:37:33;;;;;;;16.37;2.13;;;16.50;99.90;;;;;;7286728;19;20199;-81
2023/03/24 09:40:00;;;;;;;13.10;2.00;;;16.30;99.90;;;;;;7287117;19;20672;-80
2023/03/24 09:42:31;;;;;;;13.77;2.17;;;16.20;99.90;;;;;;7287570;19;20222;-80
2023/03/24 09:44:59;;;;;;;11.37;2.20;;;15.90;99.90;;;;;;7287036;19;20270;-79
2023/03/24 09:47:33;;;;;;;11.97;2.70;;;15.60;99.90;;;;;;7286514;19;20544;-79
2023/03/24 09:50:07;;;;;;;13.40;2.20;;;15.50;99.90;;;;;;7287540;19;20205;-79
2023/03/24 09:52:38;;;;;;;10.57;2.30;;;15.30;99.90;;;;;;7286547;19;20860;-80
2023/03/24 09:55:10;;;;;;;15.50;2.20;;;15.30;99.90;;;;;;7286033;19;20320;-80
2023/03/24 09:57:39;;;;;;;13.90;2.30;;;15.20;99.90;;;;;;7287415;19;20192;-82
2023/03/24 10:00:32;;;;;;;11.70;2.17;;;16.00;99.90;;;;;;7285886;19;20189;-81
2023/03/24 10:03:19;;;;;;;10.93;2.03;;;17.30;99.90;;;;;;7183789;19;2004550;-77
2023/03/24 10:06:00;;;;;;;12.80;2.23;;;17.50;99.90;;;;;;7280142;19;20210;-78
2023/03/24 10:08:35;;;;;;;11.67;2.00;;;17.20;99.90;;;;;;7285597;19;20205;-79
2023/03/24 10:11:21;;;;;;;16.07;2.33;;;17.80;99.90;;;;;;7287753;19;20211;-79
2023/03/24 10:14:11;;;;;;;12.67;2.17;;;18.10;99.90;;;;;;7264648;19;20191;-79
2023/03/24 10:16:53;;;;;;;12.93;2.40;;;18.30;99.90;;;;;;7285306;19;20195;-79
2023/03/24 10:19:40;;;;;;;10.43;2.10;;;19.00;99.90;;;;;;7264755;19;20189;-80
2023/03/24 10:22:19;;;;;;;11.43;1.90;;;19.80;99.90;;;;;;7287094;19;20200;-80
2023/03/24 10:25:04;;;;;;;9.60;2.00;;;21.30;99.90;;;;;;7271240;19;20197;-79
2023/03/24 10:27:42;;;;;;;9.80;1.97;;;23.10;99.90;;;;;;7285277;19;20192;-79
2023/03/24 10:30:33;;;;;;;12.20;2.33;;;23.50;99.90;;;;;;7286093;19;20195;-79
2023/03/24 10:32:58;;;;;;;9.03;1.90;;;23.90;99.90;;;;;;7184327;19;2004690;-79
2023/03/24 10:35:29;;;;;;;11.30;2.17;;;24.80;99.90;;;;;;7286218;19;20189;-79
2023/03/24 10:37:59;;;;;;;10.27;1.90;;;25.30;99.90;;;;;;7285652;19;20632;-79
2023/03/24 10:40:33;;;;;;;8.03;2.00;;;25.00;99.90;;;;;;7285793;19;20188;-79
2023/03/24 10:43:02;;;;;;;9.90;2.00;;;24.00;99.90;;;;;;7286676;19;20195;-79
2023/03/24 10:45:31;;;;;;;9.47;2.30;;;23.50;99.90;;;;;;7283179;19;20191;-78
2023/03/24 10:48:00;;;;;;;11.67;2.33;;;23.00;99.90;;;;;;7286114;19;20672;-78
2023/03/24 10:50:28;;;;;;;8.97;1.70;;;21.60;99.90;;;;;;7284620;19;20188;-79
2023/03/24 10:52:54;;;;;;;10.00;1.87;;;20.40;99.90;;;;;;7283691;19;20204;-79
2023/03/24 10:55:23;;;;;;;11.40;1.90;;;19.80;99.90;;;;;;7284929;19;20670;-78
2023/03/24 10:57:52;;;;;;;13.77;2.17;;;19.30;99.90;;;;;;7284571;19;20222;-80
2023/03/24 11:00:30;;;;;;;12.03;2.33;;;19.00;99.90;;;;;;7285374;19;20192;-78
2023/03/24 11:03:02;;;;;;;12.90;1.80;;;18.80;99.90;;;;;;7286122;19;20638;-79
2023/03/24 11:05:32;;;;;;;9.60;1.60;;;18.40;99.90;;;;;;7283606;19;20193;-79
2023/03/24 11:08:16;;;;;;;14.87;2.53;;;18.00;99.90;;;;;;7284331;19;20202;-79
2023/03/24 11:10:42;;;;;;;13.27;2.17;;;17.80;99.90;;;;;;7284036;19;20188;-79
2023/03/24 11:13:17;;;;;;;14.20;2.10;;;17.70;99.90;;;;;;7283114;19;20190;-83
2023/03/24 11:16:08;;;;;;;9.20;1.77;;;17.80;99.90;;;;;;7285363;19;20200;-81
2023/03/24 11:18:34;;;;;;;12.87;2.07;;;18.20;99.90;;;;;;7182744;19;2004994;-82
2023/03/24 11:21:05;;;;;;;10.83;2.00;;;18.80;99.90;;;;;;7284618;19;20225;-81
2023/03/24 11:23:34;;;;;;;13.83;2.03;;;19.70;99.90;;;;;;7286650;19;20468;-82
2023/03/24 11:26:15;;;;;;;10.40;1.67;;;19.20;99.90;;;;;;7284071;19;20185;-81
2023/03/24 11:28:55;;;;;;;14.10;1.97;;;18.70;99.90;;;;;;7286653;19;20249;-82
2023/03/24 11:31:29;;;;;;;12.70;2.10;;;18.50;99.90;;;;;;7187351;19;2004546;-80
2023/03/24 11:34:13;;;;;;;13.20;1.97;;;18.20;99.90;;;;;;7286805;19;20195;-80
2023/03/24 11:36:49;;;;;;;11.83;1.70;;;18.20;99.90;;;;;;7285175;19;20188;-80
2023/03/24 11:39:25;;;;;;;11.07;1.77;;;18.20;99.90;;;;;;7275433;19;20319;-80
2023/03/24 11:42:04;;;;;;;10.20;1.77;;;18.80;99.90;;;;;;7293654;19;20199;-81
2023/03/24 11:44:36;;;;;;;11.20;2.17;;;19.20;99.90;;;;;;7290570;19;20192;-79
2023/03/24 11:47:14;;;;;;;11.40;1.70;;;19.80;99.90;;;;;;7290244;19;20603;-80
2023/03/24 11:50:09;;;;;;;10.13;1.80;;;19.60;99.90;;;;;;7292273;19;20184;-80
2023/03/24 11:53:00;;;;;;;12.90;2.07;;;18.70;99.90;;;;;;7187226;19;2004630;-81
2023/03/24 11:55:28;;;;;;;16.53;2.17;;;18.60;99.90;;;;;;7188921;19;2005085;-81
2023/03/24 11:58:16;;;;;;;11.47;1.60;;;18.30;99.90;;;;;;7290614;19;20192;-80
2023/03/24 12:00:52;;;;;;;14.27;2.30;;;18.10;99.90;;;;;;7292644;19;20195;-81
2023/03/24 12:03:53;;;;;;;10.17;1.70;;;17.90;99.90;;;;;;7269122;19;20185;-80
2023/03/24 12:06:30;;;;;;;10.90;1.83;;;18.20;99.90;;;;;;7269627;19;20192;-79
2023/03/24 12:08:58;;;;;;;10.03;1.80;;;18.90;99.90;;;;;;7289508;19;20199;-80
2023/03/24 12:11:49;;;;;;;9.27;1.67;;;19.40;99.90;;;;;;7289708;19;20207;-81
2023/03/24 12:14:25;;;;;;;9.47;1.60;;;19.60;99.90;;;;;;7284281;19;20193;-80
2023/03/24 12:17:05;;;;;;;9.73;1.77;;;20.50;99.90;;;;;;7290566;19;20577;-81
2023/03/24 12:19:48;;;;;;;9.73;1.90;;;21.10;99.90;;;;;;7289699;19;20193;-80
2023/03/24 12:22:39;;;;;;;10.97;2.00;;;20.70;99.90;;;;;;7291083;19;20193;-81
2023/03/24 12:25:23;;;;;;;11.53;2.13;;;20.00;99.90;;;;;;7186875;19;2005984;-80
2023/03/24 12:28:07;;;;;;;10.87;1.90;;;19.90;99.90;;;;;;7186899;19;2004782;-80
2023/03/24 12:30:33;;;;;;;13.33;1.80;;;20.30;99.90;;;;;;7289393;19;20781;-81
2023/03/24 12:33:26;;;;;;;10.47;1.83;;;20.70;99.90;;;;;;7290175;19;20186;-80
2023/03/24 12:36:14;;;;;;;8.80;1.60;;;20.80;99.90;;;;;;7186942;19;2005027;-80
2023/03/24 12:39:04;;;;;;;8.20;1.50;;;21.10;99.90;;;;;;7290562;19;20196;-80
2023/03/24 12:41:33;;;;;;;8.77;1.50;;;20.70;99.90;;;;;;7187352;19;2004716;-80
2023/03/24 12:44:19;;;;;;;10.27;1.70;;;19.70;99.90;;;;;;7289816;19;20190;-81
2023/03/24 12:47:03;;;;;;;11.97;1.80;;;19.20;99.90;;;;;;7281406;19;20196;-78
2023/03/24 12:49:37;;;;;;;14.03;1.70;;;18.60;99.90;;;;;;7288262;19;20189;-80
2023/03/24 12:52:35;;;;;;;15.63;2.27;;;18.00;99.90;;;;;;7288934;19;20226;-78
2023/03/24 12:55:24;;;;;;;12.80;2.13;;;17.20;99.90;;;;;;7186847;19;2004571;-81
2023/03/24 12:58:01;;;;;;;12.40;2.07;;;16.50;99.90;;;;;;7185742;19;2004646;-79
2023/03/24 13:00:32;;;;;;;17.77;2.50;;;16.10;99.90;;;;;;7289830;19;20253;-79
2023/03/24 13:03:03;;;;;;;18.27;2.50;;;16.00;99.90;;;;;;7288978;19;20198;-79
2023/03/24 13:05:32;;;;;;;16.77;2.60;;;15.90;99.90;;;;;;7287558;19;20197;-81
2023/03/24 13:08:28;;;;;;;10.83;1.30;;;15.70;99.90;;;;;;7288547;19;20559;-81
2023/03/24 13:11:03;;;;;;;12.10;1.63;;;14.50;99.90;;;;;;7186699;19;2005956;-81
2023/03/24 13:13:35;;;;;;;9.60;1.10;;;13.90;99.90;;;;;;7286943;19;20222;-81
2023/03/24 13:16:21;;;;;;;5.33;0.80;;;13.50;99.90;;;;;;7289587;19;20198;-81
2023/03/24 13:18:51;;;;;;;7.23;1.20;;;13.30;99.90;;;;;;7266475;19;20208;-80